Palu/Mutiara, Indonesia
Current Conditions -  °F | °C
As of 9:00 PM on Thursday 27 Nov 2014 (Local Time) from WALL Reporting Station
Scattered Clouds Scattered Clouds  
Wind Chill: 82°   Ceiling: Unl
Heat Index: 89°   Visibility: 6mi
Dew Point: 75°   Wind: 3mph
Humidity: 79%   Direction: 290°WNW
Pressure: 29.77"   Gusts: NA
Location:  0.68°S, 119.73°E
Report Text: WALL 271300Z 29003KT 230V340 9000 SCT018 28/24 Q1008 NOSIG
Loading
Personal Weather Stations






























Interactive Weather Map New forecast layout! Learn more

10-Day Weather Forecast

Advertisements
Track Severe Weather on mobile